createdAt,value
2019-05-26T00:01:45.616Z,13.00
2019-05-26T00:04:15.376Z,16.23
2019-05-26T00:06:45.152Z,13.73
2019-05-26T00:09:14.964Z,11.50
2019-05-26T00:11:44.740Z,14.53
2019-05-26T00:14:14.449Z,20.80
2019-05-26T00:16:44.123Z,12.70
2019-05-26T00:19:13.836Z,17.20
2019-05-26T00:21:43.619Z,15.40
2019-05-26T00:24:13.613Z,15.27
2019-05-26T00:26:43.323Z,15.90
2019-05-26T00:29:13.272Z,18.37
2019-05-26T00:31:43.012Z,16.97
2019-05-26T00:34:12.858Z,17.60
2019-05-26T00:36:42.555Z,19.53
2019-05-26T00:39:12.426Z,16.00
2019-05-26T00:41:42.229Z,20.13
2019-05-26T00:44:12.094Z,18.33
2019-05-26T00:46:41.983Z,21.53
2019-05-26T00:49:11.847Z,22.13
2019-05-26T00:51:41.683Z,20.77
2019-05-26T00:54:11.552Z,29.77
2019-05-26T00:56:41.417Z,20.50
2019-05-26T00:59:11.277Z,26.63
2019-05-26T01:01:41.114Z,24.03
2019-05-26T01:04:11.017Z,23.37
2019-05-26T01:06:41.327Z,29.23
2019-05-26T01:09:11.098Z,25.70
2019-05-26T01:11:40.826Z,26.37
2019-05-26T01:14:10.533Z,30.77
2019-05-26T01:16:40.251Z,29.73
2019-05-26T01:19:11.098Z,36.07
2019-05-26T01:21:40.949Z,29.20
2019-05-26T01:24:10.669Z,34.27
2019-05-26T01:26:42.022Z,36.07
2019-05-26T01:29:11.876Z,43.83
2019-05-26T01:31:41.583Z,37.73
2019-05-26T01:34:11.359Z,37.43
2019-05-26T01:36:41.203Z,41.67
2019-05-26T01:39:11.066Z,43.10
2019-05-26T01:41:40.791Z,38.13
2019-05-26T01:44:10.578Z,40.93
2019-05-26T01:46:40.386Z,44.13
2019-05-26T01:49:10.158Z,46.97
2019-05-26T01:51:39.858Z,39.90
2019-05-26T01:54:10.418Z,41.40
2019-05-26T01:56:40.128Z,43.70
2019-05-26T01:59:10.930Z,40.50
2019-05-26T02:01:40.639Z,47.93
2019-05-26T02:04:10.370Z,50.40
2019-05-26T02:06:40.091Z,46.87
2019-05-26T02:09:09.870Z,47.20
2019-05-26T02:11:39.649Z,45.93
2019-05-26T02:14:09.490Z,44.23
2019-05-26T02:16:39.220Z,50.87
2019-05-26T02:19:08.995Z,59.70
2019-05-26T02:21:39.683Z,48.57
2019-05-26T02:24:09.526Z,50.27
2019-05-26T02:26:39.306Z,57.13
2019-05-26T02:29:09.002Z,62.87
2019-05-26T02:31:38.715Z,58.67
2019-05-26T02:34:08.456Z,54.50
2019-05-26T02:36:38.148Z,53.37
2019-05-26T02:39:08.679Z,65.13
2019-05-26T02:41:38.374Z,62.70
2019-05-26T02:44:08.171Z,56.83
2019-05-26T02:46:37.865Z,54.57
2019-05-26T02:49:07.935Z,56.93
2019-05-26T02:51:37.742Z,52.17
2019-05-26T02:54:07.443Z,56.87
2019-05-26T02:56:37.271Z,60.83
2019-05-26T02:59:07.072Z,55.37
2019-05-26T03:01:37.411Z,53.23
2019-05-26T03:04:07.529Z,51.80
2019-05-26T03:06:37.980Z,56.03
2019-05-26T03:09:21.730Z,55.17
2019-05-26T03:11:40.562Z,62.90
2019-05-26T03:14:11.730Z,56.90
2019-05-26T03:16:43.608Z,63.97
2019-05-26T03:19:16.908Z,58.70
2019-05-26T03:21:48.856Z,53.53
2019-05-26T03:24:20.476Z,52.00
2019-05-26T03:26:50.326Z,53.17
2019-05-26T03:29:20.028Z,51.77
2019-05-26T03:31:49.714Z,55.50
2019-05-26T03:34:19.433Z,60.23
2019-05-26T03:36:49.124Z,47.83
2019-05-26T03:39:18.841Z,52.30
2019-05-26T03:41:48.535Z,51.00
2019-05-26T03:44:18.301Z,48.37
2019-05-26T03:46:48.100Z,45.63
2019-05-26T03:49:17.806Z,61.07
2019-05-26T03:51:47.530Z,52.87
2019-05-26T03:54:17.220Z,46.33
2019-05-26T03:56:47.245Z,51.83
2019-05-26T03:59:16.932Z,46.17
2019-05-26T04:01:46.786Z,51.73
2019-05-26T04:04:16.484Z,52.50
2019-05-26T04:06:46.204Z,51.77
2019-05-26T04:09:15.924Z,49.17
2019-05-26T04:11:45.701Z,46.80
2019-05-26T04:14:15.503Z,61.53
2019-05-26T04:16:45.198Z,48.70
2019-05-26T04:19:14.972Z,50.70
2019-05-26T04:21:44.676Z,47.60
2019-05-26T04:24:14.436Z,47.53
2019-05-26T04:26:44.219Z,45.73
2019-05-26T04:29:13.957Z,41.43
2019-05-26T04:31:43.746Z,40.70
2019-05-26T04:34:13.515Z,45.90
2019-05-26T04:36:43.215Z,38.93
2019-05-26T04:39:13.016Z,39.37
2019-05-26T04:41:42.712Z,45.87
2019-05-26T04:44:14.593Z,44.60
2019-05-26T04:46:44.298Z,41.40
2019-05-26T04:49:14.007Z,40.97
2019-05-26T04:51:43.702Z,42.97
2019-05-26T04:54:13.410Z,44.03
2019-05-26T04:56:43.103Z,36.20
2019-05-26T04:59:12.806Z,37.30
2019-05-26T05:01:42.562Z,31.40
2019-05-26T05:04:12.283Z,42.70
2019-05-26T05:06:41.982Z,41.50
2019-05-26T05:09:11.997Z,39.50
2019-05-26T05:11:41.773Z,39.10
2019-05-26T05:14:11.736Z,38.70
2019-05-26T05:16:41.427Z,36.80
2019-05-26T05:19:11.224Z,37.27
2019-05-26T05:21:43.375Z,30.03
2019-05-26T05:24:13.204Z,27.57
2019-05-26T05:26:42.904Z,28.90
2019-05-26T05:29:12.739Z,29.07
2019-05-26T05:31:42.611Z,24.40
2019-05-26T05:34:12.402Z,22.17
2019-05-26T05:36:42.144Z,20.63
2019-05-26T05:39:11.907Z,24.40
2019-05-26T05:41:42.178Z,24.40
2019-05-26T05:44:12.063Z,21.13
2019-05-26T05:46:42.094Z,20.67
2019-05-26T05:49:11.946Z,23.37
2019-05-26T05:51:41.730Z,18.90
2019-05-26T05:54:11.820Z,19.27
2019-05-26T05:56:41.511Z,15.73
2019-05-26T05:59:11.567Z,21.90
2019-05-26T06:01:41.440Z,27.17
2019-05-26T06:04:11.395Z,26.97
2019-05-26T06:06:41.102Z,17.00
2019-05-26T06:09:11.965Z,16.43
2019-05-26T06:11:41.671Z,14.77
2019-05-26T06:14:11.695Z,22.13
2019-05-26T06:16:41.387Z,15.70
2019-05-26T06:19:11.102Z,13.37
2019-05-26T06:21:40.886Z,17.53
2019-05-26T06:24:10.928Z,17.37
2019-05-26T06:26:41.693Z,17.33
2019-05-26T06:29:11.571Z,20.73
2019-05-26T06:31:41.264Z,13.63
2019-05-26T06:34:11.063Z,15.67
2019-05-26T06:36:40.927Z,16.20
2019-05-26T06:39:10.746Z,14.23
2019-05-26T06:41:40.485Z,26.60
2019-05-26T06:44:10.390Z,15.93
2019-05-26T06:46:40.135Z,15.77
2019-05-26T06:49:29.159Z,17.67
2019-05-26T06:51:58.867Z,18.33
2019-05-26T06:54:28.650Z,11.37
2019-05-26T06:56:58.431Z,19.40
2019-05-26T06:59:28.126Z,14.37
2019-05-26T07:01:59.424Z,13.60
2019-05-26T07:04:29.110Z,14.67
2019-05-26T07:06:59.083Z,13.37
2019-05-26T07:09:28.791Z,13.77
2019-05-26T07:12:00.434Z,14.83
2019-05-26T07:14:31.127Z,16.20
2019-05-26T07:17:00.814Z,16.20
2019-05-26T07:19:30.600Z,19.67
2019-05-26T07:22:00.557Z,12.70
2019-05-26T07:24:30.270Z,16.30
2019-05-26T07:26:59.983Z,19.70
2019-05-26T07:29:29.676Z,18.30
2019-05-26T07:31:59.625Z,15.83
2019-05-26T07:34:29.322Z,16.13
2019-05-26T07:36:59.047Z,17.33
2019-05-26T07:39:29.167Z,17.67
2019-05-26T07:42:10.024Z,18.47
2019-05-26T07:44:30.386Z,15.50
2019-05-26T07:47:00.121Z,17.33
2019-05-26T07:49:29.946Z,17.20
2019-05-26T07:52:00.597Z,9.67
2019-05-26T07:54:30.322Z,16.80
2019-05-26T07:57:00.075Z,19.13
2019-05-26T07:59:29.851Z,9.97
2019-05-26T08:01:59.607Z,18.60
2019-05-26T08:04:29.394Z,20.00
2019-05-26T08:06:59.259Z,28.30
2019-05-26T08:09:28.980Z,17.20
2019-05-26T08:11:58.787Z,19.00
2019-05-26T08:14:28.596Z,11.53
2019-05-26T08:16:58.282Z,11.17
2019-05-26T08:19:27.983Z,13.97
2019-05-26T08:21:57.783Z,9.73
2019-05-26T08:24:27.487Z,20.50
2019-05-26T08:26:57.195Z,22.60
2019-05-26T08:29:26.912Z,14.30
2019-05-26T08:31:56.657Z,16.43
2019-05-26T08:34:26.408Z,17.47
2019-05-26T08:36:56.407Z,15.67
2019-05-26T08:39:27.139Z,17.37
2019-05-26T08:41:56.916Z,16.07
2019-05-26T08:44:26.682Z,19.23
2019-05-26T08:46:56.501Z,13.23
2019-05-26T08:49:26.214Z,9.80
2019-05-26T08:51:56.023Z,17.07
2019-05-26T08:54:25.812Z,10.67
2019-05-26T08:56:55.743Z,13.90
2019-05-26T08:59:25.546Z,14.83
2019-05-26T09:01:55.288Z,10.33
2019-05-26T09:04:25.000Z,13.53
2019-05-26T09:06:54.792Z,10.77
2019-05-26T09:09:24.501Z,15.77
2019-05-26T09:11:54.267Z,11.83
2019-05-26T09:14:25.543Z,12.30
2019-05-26T09:16:55.620Z,11.27
2019-05-26T09:19:25.552Z,16.07
2019-05-26T09:21:55.351Z,12.87
2019-05-26T09:24:25.033Z,12.80
2019-05-26T09:26:54.795Z,10.33
2019-05-26T09:29:24.937Z,12.27
2019-05-26T09:31:54.797Z,11.07
2019-05-26T09:34:26.689Z,17.13
2019-05-26T09:36:57.121Z,11.57
2019-05-26T09:39:27.236Z,9.20
2019-05-26T09:41:56.938Z,8.37
2019-05-26T09:44:26.642Z,11.27
2019-05-26T09:47:10.056Z,9.97
2019-05-26T09:49:39.950Z,12.07
2019-05-26T09:52:09.737Z,10.20
2019-05-26T09:54:39.475Z,10.87
2019-05-26T09:57:09.163Z,8.90
2019-05-26T09:59:38.953Z,9.93
2019-05-26T10:02:08.791Z,13.07
2019-05-26T10:04:38.514Z,11.67
2019-05-26T10:07:11.148Z,9.50
2019-05-26T10:09:39.778Z,8.57
2019-05-26T10:12:09.471Z,8.10
2019-05-26T10:14:39.252Z,12.23
2019-05-26T10:17:09.112Z,10.50
2019-05-26T10:19:38.886Z,7.67
2019-05-26T10:22:08.735Z,15.53
2019-05-26T10:24:38.503Z,8.90
2019-05-26T10:27:08.200Z,8.47
2019-05-26T10:29:37.879Z,5.50
2019-05-26T10:32:07.751Z,7.57
2019-05-26T10:34:37.527Z,5.90
2019-05-26T10:37:07.380Z,5.20
2019-05-26T10:39:37.147Z,5.80
2019-05-26T10:42:06.943Z,6.13
2019-05-26T10:44:36.714Z,10.47
2019-05-26T10:47:06.490Z,6.93
2019-05-26T10:49:36.181Z,6.40
2019-05-26T10:52:06.034Z,6.57
2019-05-26T10:54:35.804Z,5.93
2019-05-26T10:57:05.670Z,5.67
2019-05-26T10:59:36.344Z,8.20
2019-05-26T11:02:06.197Z,7.23
2019-05-26T11:04:35.898Z,7.73
2019-05-26T11:07:05.755Z,13.80
2019-05-26T11:09:35.557Z,4.30
2019-05-26T11:12:05.581Z,12.80
2019-05-26T11:14:35.267Z,7.27
2019-05-26T11:17:05.194Z,7.77
2019-05-26T11:19:34.968Z,10.50
2019-05-26T11:22:05.015Z,6.33
2019-05-26T11:24:34.691Z,11.07
2019-05-26T11:27:10.118Z,7.23
2019-05-26T11:29:36.048Z,7.20
2019-05-26T11:32:05.944Z,8.17
2019-05-26T11:34:35.676Z,8.98
2019-05-26T11:37:05.519Z,14.23
2019-05-26T11:39:35.298Z,10.10
2019-05-26T11:42:13.498Z,7.67
2019-05-26T11:44:36.602Z,16.23
2019-05-26T11:47:06.376Z,9.00
2019-05-26T11:49:36.152Z,8.60
2019-05-26T11:52:06.130Z,13.07
2019-05-26T11:54:36.027Z,7.00
2019-05-26T11:57:05.855Z,9.67
2019-05-26T11:59:35.582Z,15.33
2019-05-26T12:02:05.419Z,4.20
2019-05-26T12:04:35.111Z,7.33
2019-05-26T12:07:05.032Z,5.67
2019-05-26T12:09:34.797Z,4.00
2019-05-26T12:12:04.851Z,10.53
2019-05-26T12:14:35.637Z,12.93
2019-05-26T12:17:05.599Z,8.83
2019-05-26T12:19:35.287Z,11.20
2019-05-26T12:22:05.183Z,6.77
2019-05-26T12:24:34.858Z,18.83
2019-05-26T12:27:04.627Z,10.40
2019-05-26T12:29:34.351Z,11.57
2019-05-26T12:32:04.400Z,4.33
2019-05-26T12:34:34.286Z,4.60
2019-05-26T12:37:04.171Z,3.13
2019-05-26T12:39:33.978Z,6.77
2019-05-26T12:42:03.971Z,4.43
2019-05-26T12:44:46.732Z,5.17
2019-05-26T12:47:06.363Z,4.43
2019-05-26T12:49:36.310Z,4.40
2019-05-26T12:52:06.287Z,2.77
2019-05-26T12:54:35.978Z,4.35
2019-05-26T12:57:05.815Z,8.20
2019-05-26T12:59:35.601Z,8.03
2019-05-26T13:02:05.676Z,4.60
2019-05-26T13:04:35.492Z,2.90
2019-05-26T13:07:05.387Z,4.13
2019-05-26T13:09:36.127Z,1.60
2019-05-26T13:12:06.120Z,5.47
2019-05-26T13:14:35.931Z,7.63
2019-05-26T13:17:05.891Z,4.95
2019-05-26T13:19:35.745Z,4.60
2019-05-26T13:22:08.639Z,3.33
2019-05-26T13:24:38.345Z,7.78
2019-05-26T13:27:08.115Z,4.97
2019-05-26T13:29:38.777Z,5.53
2019-05-26T13:32:08.538Z,4.87
2019-05-26T13:34:38.407Z,7.60
2019-05-26T13:37:08.111Z,5.37
2019-05-26T13:39:37.872Z,5.73
2019-05-26T13:42:07.607Z,8.53
2019-05-26T13:44:37.371Z,7.63
2019-05-26T13:47:07.075Z,6.03
2019-05-26T13:49:36.836Z,4.33
2019-05-26T13:52:06.747Z,5.20
2019-05-26T13:54:36.622Z,3.77
2019-05-26T13:57:07.362Z,3.80
2019-05-26T13:59:37.078Z,7.60
2019-05-26T14:02:07.430Z,3.00
2019-05-26T14:04:37.252Z,4.13
2019-05-26T14:07:07.030Z,2.30
2019-05-26T14:09:36.818Z,1.83
2019-05-26T14:12:06.579Z,4.80
2019-05-26T14:14:36.271Z,5.17
2019-05-26T14:17:05.980Z,3.67
2019-05-26T14:19:37.456Z,6.10
2019-05-26T14:22:07.167Z,7.23
2019-05-26T14:24:45.022Z,4.20
2019-05-26T14:27:08.424Z,5.20
2019-05-26T14:29:38.236Z,3.07
2019-05-26T14:32:08.018Z,8.77
2019-05-26T14:34:37.756Z,4.17
2019-05-26T14:37:07.663Z,5.53
2019-05-26T14:39:37.495Z,3.47
2019-05-26T14:42:07.335Z,6.93
2019-05-26T14:44:37.083Z,3.13
2019-05-26T14:47:06.926Z,6.33
2019-05-26T14:49:36.643Z,8.43
2019-05-26T14:52:06.623Z,12.67
2019-05-26T14:54:36.363Z,5.23
2019-05-26T14:57:06.215Z,10.43
2019-05-26T14:59:35.999Z,11.33
2019-05-26T15:02:05.793Z,3.37
2019-05-26T15:04:36.833Z,2.90
2019-05-26T15:07:06.700Z,3.20
2019-05-26T15:09:36.484Z,3.87
2019-05-26T15:12:06.323Z,7.57
2019-05-26T15:14:36.211Z,7.53
2019-05-26T15:17:06.024Z,12.77
2019-05-26T15:19:35.807Z,9.53
2019-05-26T15:22:05.646Z,5.93
2019-05-26T15:24:35.359Z,5.40
2019-05-26T15:27:06.015Z,5.77
2019-05-26T15:29:35.795Z,11.53
2019-05-26T15:32:05.760Z,8.10
2019-05-26T15:34:35.499Z,8.63
2019-05-26T15:37:06.864Z,7.47
2019-05-26T15:39:36.600Z,6.37
2019-05-26T15:42:08.436Z,13.10
2019-05-26T15:44:38.026Z,5.90
2019-05-26T15:47:07.963Z,5.37
2019-05-26T15:49:37.775Z,18.60
2019-05-26T15:52:07.724Z,9.13
2019-05-26T15:54:38.494Z,6.27
2019-05-26T15:57:08.338Z,7.13
2019-05-26T15:59:38.053Z,9.93
2019-05-26T16:02:07.896Z,13.03
2019-05-26T16:04:44.968Z,9.83
2019-05-26T16:07:13.941Z,11.40
2019-05-26T16:09:43.882Z,6.87
2019-05-26T16:12:13.580Z,8.10
2019-05-26T16:14:45.227Z,13.37
2019-05-26T16:17:14.839Z,18.27
2019-05-26T16:19:44.553Z,6.83
2019-05-26T16:22:14.246Z,12.43
2019-05-26T16:24:43.951Z,6.90
2019-05-26T16:27:19.128Z,17.47
2019-05-26T16:29:46.684Z,9.13
2019-05-26T16:32:18.893Z,4.60
2019-05-26T16:34:48.179Z,14.73
2019-05-26T16:37:17.895Z,4.03
2019-05-26T16:39:47.615Z,6.83
2019-05-26T16:42:18.385Z,6.67
2019-05-26T16:44:48.210Z,8.97
2019-05-26T16:47:17.931Z,10.93
2019-05-26T16:49:47.687Z,8.67
2019-05-26T16:52:17.469Z,10.83
2019-05-26T16:54:47.166Z,9.60
2019-05-26T16:57:16.859Z,5.33
2019-05-26T16:59:46.567Z,14.93
2019-05-26T17:02:16.251Z,10.33
2019-05-26T17:04:46.126Z,14.50
2019-05-26T17:07:15.909Z,6.70
2019-05-26T17:09:45.695Z,5.80
2019-05-26T17:12:15.529Z,7.63
2019-05-26T17:14:47.351Z,5.70
2019-05-26T17:17:18.315Z,12.17
2019-05-26T17:19:48.102Z,7.13
2019-05-26T17:22:17.895Z,26.97
2019-05-26T17:24:47.709Z,11.70
2019-05-26T17:27:17.463Z,11.83
2019-05-26T17:29:47.354Z,7.73
2019-05-26T17:32:17.131Z,9.80
2019-05-26T17:34:46.836Z,3.93
2019-05-26T17:37:16.563Z,8.33
2019-05-26T17:39:46.266Z,12.57
2019-05-26T17:42:16.031Z,9.40
2019-05-26T17:44:45.938Z,5.57
2019-05-26T17:47:29.201Z,7.10
2019-05-26T17:49:47.287Z,3.43
2019-05-26T17:52:16.982Z,5.27
2019-05-26T17:54:46.719Z,5.97
2019-05-26T17:57:18.125Z,22.33
2019-05-26T17:59:47.852Z,8.83
2019-05-26T18:02:17.664Z,10.43
2019-05-26T18:04:47.489Z,13.43
2019-05-26T18:07:17.260Z,12.97
2019-05-26T18:09:47.027Z,8.17
2019-05-26T18:12:16.754Z,13.17
2019-05-26T18:14:46.645Z,8.03
2019-05-26T18:17:16.490Z,9.40
2019-05-26T18:19:46.194Z,10.53
2019-05-26T18:22:15.895Z,9.20
2019-05-26T18:24:54.953Z,15.23
2019-05-26T18:27:17.081Z,5.73
2019-05-26T18:29:48.680Z,17.40
2019-05-26T18:32:18.370Z,7.93
2019-05-26T18:34:48.224Z,6.33
2019-05-26T18:37:18.157Z,8.53
2019-05-26T18:39:47.947Z,8.07
2019-05-26T18:42:17.722Z,5.73
2019-05-26T18:44:47.590Z,23.90
2019-05-26T18:47:19.756Z,9.87
2019-05-26T18:49:49.546Z,15.10
2019-05-26T18:52:19.347Z,11.97
2019-05-26T18:54:49.035Z,18.03
2019-05-26T18:57:18.874Z,17.03
2019-05-26T18:59:48.599Z,15.63
2019-05-26T19:02:18.316Z,13.20
2019-05-26T19:04:48.030Z,14.10
2019-05-26T19:07:17.783Z,19.97
2019-05-26T19:09:47.505Z,12.37
2019-05-26T19:12:17.695Z,20.50
2019-05-26T19:14:47.426Z,15.30
2019-05-26T19:17:17.958Z,18.13
2019-05-26T19:19:47.790Z,16.77
2019-05-26T19:22:17.654Z,18.70
2019-05-26T19:24:47.430Z,23.93
2019-05-26T19:27:17.230Z,14.07
2019-05-26T19:29:47.010Z,12.03
2019-05-26T19:32:16.810Z,19.27
2019-05-26T19:34:46.546Z,8.70
2019-05-26T19:37:17.956Z,10.57
2019-05-26T19:39:47.803Z,13.33
2019-05-26T19:42:17.513Z,15.03
2019-05-26T19:44:47.235Z,6.97
2019-05-26T19:47:17.124Z,10.13
2019-05-26T19:49:47.706Z,5.73
2019-05-26T19:52:17.459Z,5.53
2019-05-26T19:54:48.508Z,7.07
2019-05-26T19:57:18.290Z,3.67
2019-05-26T19:59:48.090Z,7.13
2019-05-26T20:02:19.016Z,8.83
2019-05-26T20:04:48.858Z,7.00
2019-05-26T20:07:18.584Z,8.40
2019-05-26T20:09:48.392Z,12.23
2019-05-26T20:12:18.178Z,10.27
2019-05-26T20:14:47.886Z,16.17
2019-05-26T20:17:17.725Z,17.27
2019-05-26T20:19:47.531Z,17.27
2019-05-26T20:22:17.298Z,17.73
2019-05-26T20:24:47.028Z,28.43
2019-05-26T20:27:16.756Z,14.70
2019-05-26T20:29:47.602Z,9.37
2019-05-26T20:32:17.325Z,11.07
2019-05-26T20:34:47.234Z,12.93
2019-05-26T20:37:16.965Z,13.37
2019-05-26T20:39:46.711Z,10.93
2019-05-26T20:42:16.495Z,12.23
2019-05-26T20:44:46.210Z,17.70
2019-05-26T20:47:15.999Z,8.93
2019-05-26T20:49:46.143Z,10.93
2019-05-26T20:52:16.089Z,11.20
2019-05-26T20:54:45.795Z,9.83
2019-05-26T20:57:15.479Z,9.63
2019-05-26T20:59:45.207Z,12.90
2019-05-26T21:02:14.932Z,9.73
2019-05-26T21:04:44.685Z,16.17
2019-05-26T21:07:14.447Z,17.70
2019-05-26T21:09:44.174Z,13.63
2019-05-26T21:12:13.934Z,10.37
2019-05-26T21:14:43.915Z,9.40
2019-05-26T21:17:13.615Z,17.83
2019-05-26T21:19:43.316Z,11.33
2019-05-26T21:22:13.103Z,13.03
2019-05-26T21:24:42.795Z,16.30
2019-05-26T21:27:13.316Z,17.43
2019-05-26T21:29:43.032Z,26.07
2019-05-26T21:32:12.723Z,29.57
2019-05-26T21:34:42.520Z,18.53
2019-05-26T21:37:12.300Z,28.03
2019-05-26T21:39:41.987Z,20.90
2019-05-26T21:42:11.771Z,16.83
2019-05-26T21:44:41.467Z,29.10
2019-05-26T21:47:11.168Z,20.23
2019-05-26T21:49:40.998Z,28.90
2019-05-26T21:52:10.688Z,19.73
2019-05-26T21:54:41.313Z,26.50
2019-05-26T21:57:11.309Z,24.27
2019-05-26T21:59:41.079Z,32.60
2019-05-26T22:02:10.904Z,30.90
2019-05-26T22:04:40.615Z,47.90
2019-05-26T22:07:10.411Z,25.93
2019-05-26T22:09:40.249Z,23.47
2019-05-26T22:12:10.025Z,21.93
2019-05-26T22:14:39.802Z,27.67
2019-05-26T22:17:09.507Z,26.23
2019-05-26T22:19:39.291Z,26.60
2019-05-26T22:22:08.994Z,28.67
2019-05-26T22:24:38.680Z,29.80
2019-05-26T22:27:08.404Z,31.23
2019-05-26T22:29:38.151Z,27.53
2019-05-26T22:32:07.862Z,30.77
2019-05-26T22:34:38.666Z,25.33
2019-05-26T22:37:08.367Z,41.57
2019-05-26T22:39:38.072Z,23.37
2019-05-26T22:42:07.914Z,30.30
2019-05-26T22:44:37.810Z,26.13
2019-05-26T22:47:07.503Z,32.43
2019-05-26T22:49:38.362Z,29.70
2019-05-26T22:52:08.203Z,37.40
2019-05-26T22:54:38.064Z,24.23
2019-05-26T22:57:07.886Z,26.77
2019-05-26T22:59:37.600Z,28.67
2019-05-26T23:02:07.342Z,24.07
2019-05-26T23:04:37.128Z,27.30
2019-05-26T23:07:06.975Z,20.53
2019-05-26T23:09:37.044Z,32.30
2019-05-26T23:12:06.841Z,20.67
2019-05-26T23:14:36.599Z,21.13
2019-05-26T23:17:06.582Z,26.20
2019-05-26T23:19:36.403Z,16.27
2019-05-26T23:22:06.320Z,24.83
2019-05-26T23:24:36.007Z,24.73
2019-05-26T23:27:05.801Z,22.83
2019-05-26T23:29:35.566Z,32.20
2019-05-26T23:32:05.475Z,24.93
2019-05-26T23:34:35.253Z,18.63
2019-05-26T23:37:05.131Z,16.80
2019-05-26T23:39:34.856Z,38.70
2019-05-26T23:42:04.627Z,19.37
2019-05-26T23:44:34.398Z,18.90
2019-05-26T23:47:04.259Z,18.27
2019-05-26T23:49:34.061Z,18.97
2019-05-26T23:52:03.835Z,19.33
2019-05-26T23:54:33.623Z,20.60
2019-05-26T23:57:03.498Z,12.87
2019-05-26T23:59:33.287Z,14.17
